Time;durP1;ratioP1;P1;durP2;ratioP2;P2;SDS_P1;SDS_P2;PMS_P1;PMS_P2;Temp;Humidity;BMP_temperature;BMP_pressure;BME280_temperature;BME280_humidity;BME280_pressure;Samples;Min_cycle;Max_cycle;Signal;HPM_P1;HPM_P2
2022/01/26 00:00:29;;;;;;;8.85;2.00;;;;;;;7.23;100.00;102050.72;5132382;27;20064;-89
2022/01/26 00:05:51;;;;;;;6.10;1.92;;;;;;;7.24;100.00;102035.94;5136149;27;20092;-89
2022/01/26 00:08:23;;;;;;;5.78;1.65;;;;;;;6.97;100.00;101993.50;5136241;27;20049;-89
2022/01/26 00:10:50;;;;;;;7.33;2.07;;;;;;;7.50;100.00;102035.00;5116285;27;20047;-89
2022/01/26 00:13:17;;;;;;;10.27;2.33;;;;;;;7.39;100.00;102033.31;5135959;27;20484;-89
2022/01/26 00:15:44;;;;;;;7.70;2.17;;;;;;;7.13;100.00;102009.94;5116971;27;20057;-89
2022/01/26 00:18:11;;;;;;;6.93;2.10;;;;;;;7.07;100.00;101989.13;5118204;27;20458;-89
2022/01/26 00:20:50;;;;;;;6.57;1.90;;;;;;;7.15;100.00;101996.91;5117580;27;20043;-88
2022/01/26 00:38:58;;;;;;;7.18;1.85;;;;;;;7.50;100.00;102007.19;5135147;27;20134;-89
2022/01/26 00:41:37;;;;;;;5.07;1.40;;;;;;;7.46;100.00;102008.09;5116354;27;20043;-88
2022/01/26 00:44:05;;;;;;;6.07;2.05;;;;;;;7.41;100.00;102002.03;5134800;27;20069;-88
2022/01/26 00:46:34;;;;;;;6.38;1.80;;;;;;;7.51;100.00;102008.94;5116404;27;20687;-87
2022/01/26 00:49:01;;;;;;;6.38;1.98;;;;;;;7.58;100.00;102008.03;5116957;27;20043;-89
2022/01/26 00:51:27;;;;;;;6.50;1.77;;;;;;;7.74;100.00;102008.84;5115763;27;20059;-88
2022/01/26 00:54:02;;;;;;;6.72;1.67;;;;;;;7.11;100.00;101943.13;5134584;27;20126;-89
2022/01/26 00:56:30;;;;;;;4.90;1.65;;;;;;;7.57;100.00;101980.22;5116513;27;20088;-88
2022/01/26 00:58:57;;;;;;;6.03;1.67;;;;;;;7.66;100.00;102002.78;5116333;27;20134;-88
2022/01/26 01:01:25;;;;;;;4.78;1.75;;;;;;;7.67;100.00;102007.13;5133089;27;20051;-85
2022/01/26 01:03:52;;;;;;;4.20;1.50;;;;;;;7.70;100.00;101995.81;5117634;27;20051;-88
2022/01/26 01:06:26;;;;;;;5.95;1.92;;;;;;;7.88;100.00;102020.91;5135506;27;20397;-89
2022/01/26 01:08:56;;;;;;;6.28;1.88;;;;;;;7.71;100.00;101989.75;5116694;27;20528;-89
2022/01/26 01:11:24;;;;;;;4.47;1.42;;;;;;;7.85;100.00;101994.88;5103097;28;20130;-89
2022/01/26 01:13:51;;;;;;;5.32;2.08;;;;;;;8.06;100.00;102031.25;5128178;27;20392;-89
2022/01/26 01:16:21;;;;;;;4.55;1.60;;;;;;;8.01;100.00;102016.50;5116572;27;20403;-89
2022/01/26 01:19:09;;;;;;;3.83;1.30;;;;;;;8.05;100.00;102006.03;5122930;27;20048;-89
2022/01/26 01:29:25;;;;;;;3.38;1.33;;;;;;;8.17;100.00;101987.69;5123484;27;20043;-89
2022/01/26 01:34:25;;;;;;;5.90;1.60;;;;;;;8.09;100.00;101986.88;5134763;27;20058;-89
2022/01/26 01:36:54;;;;;;;3.67;1.63;;;;;;;8.28;100.00;102000.63;5115542;27;20047;-89
2022/01/26 01:39:22;;;;;;;4.00;1.20;;;;;;;8.18;100.00;101999.84;5115914;27;20051;-88
2022/01/26 01:41:50;;;;;;;4.07;1.50;;;;;;;8.22;100.00;101986.78;5131421;27;20782;-89
2022/01/26 01:44:17;;;;;;;3.80;1.30;;;;;;;8.26;100.00;101983.28;5115933;27;20058;-89
2022/01/26 01:46:44;;;;;;;4.00;1.27;;;;;;;8.41;100.00;101993.59;5100235;28;20051;-89
2022/01/26 01:49:13;;;;;;;3.22;1.30;;;;;;;8.32;100.00;101972.78;5103360;27;20073;-88
2022/01/26 01:51:46;;;;;;;2.20;1.23;;;;;;;8.29;100.00;101983.25;5114633;27;20043;-89
2022/01/26 01:54:17;;;;;;;4.82;1.60;;;;;;;8.24;100.00;101990.25;5115178;27;20054;-89
2022/01/26 01:56:50;;;;;;;3.50;1.25;;;;;;;8.29;100.00;102001.53;5115645;27;20063;-88
2022/01/26 01:59:17;;;;;;;;;;;;;;;8.61;100.00;102000.41;5124345;27;20050;-89
2022/01/26 02:01:44;;;;;;;2.80;1.30;;;;;;;8.33;100.00;101988.41;5132375;27;19923;-86
2022/01/26 02:04:11;;;;;;;2.22;1.10;;;;;;;8.41;100.00;101974.44;5133883;27;20051;-88
2022/01/26 02:06:40;;;;;;;3.70;1.20;;;;;;;8.32;100.00;101989.31;5133838;27;20583;-88
2022/01/26 02:09:07;;;;;;;3.22;1.20;;;;;;;8.03;100.00;101953.00;5133339;27;20046;-89
2022/01/26 02:11:34;;;;;;;3.00;1.10;;;;;;;7.82;100.00;101945.34;5115190;27;20047;-89
2022/01/26 02:14:09;;;;;;;3.40;1.33;;;;;;;8.14;100.00;101979.91;5116296;27;20404;-88
2022/01/26 02:17:19;;;;;;;2.95;1.17;;;;;;;8.12;100.00;101986.84;5108193;27;20044;-88
2022/01/26 02:50:13;;;;;;;5.30;1.65;;;;;;;7.38;100.00;101961.25;5116705;28;20059;-89
2022/01/26 03:02:59;;;;;;;3.42;1.30;;;;;;;6.81;100.00;101947.53;5132249;28;20047;-89
2022/01/26 03:05:33;;;;;;;1.77;1.00;;;;;;;6.77;100.00;101951.88;5115092;27;20060;-89
2022/01/26 03:08:04;;;;;;;3.35;1.10;;;;;;;6.60;100.00;101920.69;5118554;27;20492;-89
2022/01/26 03:13:04;;;;;;;2.72;1.10;;;;;;;6.57;100.00;101905.09;5116187;27;20047;-89
2022/01/26 03:15:46;;;;;;;2.60;1.35;;;;;;;6.61;100.00;101942.38;5123568;27;20039;-90
2022/01/26 03:21:01;;;;;;;2.80;1.27;;;;;;;6.67;100.00;101923.28;5131063;27;20044;-88
2022/01/26 03:29:38;;;;;;;4.32;1.60;;;;;;;6.92;100.00;101960.53;5115827;28;20047;-89
2022/01/26 03:34:28;;;;;;;4.28;1.42;;;;;;;6.80;100.00;101938.88;5116133;28;20047;-88
2022/01/26 03:36:59;;;;;;;2.55;1.17;;;;;;;6.44;100.00;101865.22;5116703;28;20044;-89
2022/01/26 03:39:28;;;;;;;2.33;1.08;;;;;;;6.59;100.00;101920.72;5116551;28;20111;-89
2022/01/26 03:42:04;;;;;;;2.80;1.20;;;;;;;6.67;100.00;101899.88;5131025;27;20043;-88
2022/01/26 03:44:32;;;;;;;4.10;1.55;;;;;;;6.65;100.00;101902.47;5123379;27;20042;-89
2022/01/26 03:46:59;;;;;;;2.60;1.30;;;;;;;6.60;100.00;101892.06;5118469;27;20047;-89
2022/01/26 03:49:26;;;;;;;2.10;1.10;;;;;;;6.71;100.00;101897.25;5100347;28;20044;-89
2022/01/26 03:51:53;;;;;;;2.97;1.30;;;;;;;6.71;100.00;101871.22;5130904;27;20051;-88
2022/01/26 03:54:21;;;;;;;4.13;1.67;;;;;;;6.93;100.00;101894.56;5118581;27;20411;-89
2022/01/26 03:56:48;;;;;;;4.13;1.42;;;;;;;6.90;100.00;101886.78;5136319;27;20043;-88
2022/01/26 03:59:15;;;;;;;3.80;1.40;;;;;;;6.87;100.00;101879.84;5114909;28;20076;-88
2022/01/26 04:01:41;;;;;;;2.78;1.27;;;;;;;6.78;100.00;101865.13;5116602;27;20499;-89
2022/01/26 04:04:09;;;;;;;2.58;1.20;;;;;;;6.84;100.00;101872.03;5122776;27;20409;-89
2022/01/26 04:06:36;;;;;;;2.15;1.10;;;;;;;6.52;100.00;101844.41;5098069;28;20083;-89
2022/01/26 04:09:08;;;;;;;3.20;1.30;;;;;;;6.85;100.00;101899.78;5116164;28;20047;-88
2022/01/26 04:11:39;;;;;;;3.28;1.30;;;;;;;6.88;100.00;101905.00;5124035;27;20396;-88
2022/01/26 04:14:10;;;;;;;3.75;1.30;;;;;;;6.61;100.00;101882.53;5117018;27;20055;-88
2022/01/26 04:16:39;;;;;;;3.38;1.30;;;;;;;6.48;100.00;101871.31;5134089;27;20054;-88
2022/01/26 04:19:07;;;;;;;4.75;1.20;;;;;;;6.70;100.00;101890.31;5102610;28;20089;-89
2022/01/26 04:24:12;;;;;;;2.47;1.30;;;;;;;6.56;100.00;101873.88;5135771;27;20051;-87
2022/01/26 04:29:18;;;;;;;3.88;1.50;;;;;;;6.18;100.00;101849.69;5115133;28;20054;-88
2022/01/26 04:31:45;;;;;;;;;;;;;;;6.49;100.00;101882.56;5117209;27;20047;-89
2022/01/26 04:34:12;;;;;;;4.43;1.42;;;;;;;6.14;100.00;101828.88;5116658;27;19923;-88
2022/01/26 04:36:49;;;;;;;4.68;1.55;;;;;;;5.67;100.00;101839.25;5117059;27;20050;-88
2022/01/26 04:39:21;;;;;;;2.13;1.15;;;;;;;5.78;100.00;101838.41;5116726;27;20057;-87
2022/01/26 04:44:57;;;;;;;4.28;1.55;;;;;;;6.05;100.00;101893.00;5126607;27;20051;-89
2022/01/26 04:47:24;;;;;;;3.70;1.40;;;;;;;5.83;100.00;101886.06;5116134;27;20053;-88
2022/01/26 04:49:51;;;;;;;3.28;1.30;;;;;;;5.66;100.00;101876.50;5097003;28;20062;-88
2022/01/26 04:52:17;;;;;;;3.63;1.42;;;;;;;5.50;100.00;101857.41;5115730;27;20039;-90
2022/01/26 04:54:45;;;;;;;2.72;1.20;;;;;;;5.69;100.00;101878.25;5113806;28;20052;-89
2022/01/26 04:57:11;;;;;;;2.70;1.00;;;;;;;5.64;100.00;101854.84;5114091;28;20062;-89
2022/01/26 04:59:39;;;;;;;3.33;1.50;;;;;;;5.04;100.00;101809.75;5116594;27;20050;-88
2022/01/26 05:02:05;;;;;;;2.88;1.20;;;;;;;5.44;100.00;101849.63;5112156;28;20040;-89
2022/01/26 05:04:32;;;;;;;3.67;1.38;;;;;;;5.56;100.00;101873.88;5096842;28;20047;-90
2022/01/26 05:06:59;;;;;;;4.18;1.55;;;;;;;5.33;100.00;101861.75;5113824;28;20135;-90
2022/01/26 05:09:26;;;;;;;3.30;1.40;;;;;;;5.28;100.00;101872.13;5096815;28;20058;-89
2022/01/26 05:11:54;;;;;;;5.03;1.60;;;;;;;5.33;100.00;101875.59;5129099;27;20082;-89
2022/01/26 05:14:22;;;;;;;4.18;1.42;;;;;;;5.50;100.00;101887.75;5117179;27;20057;-88
2022/01/26 05:16:49;;;;;;;2.95;1.30;;;;;;;5.66;100.00;101899.03;5114750;27;20160;-89
2022/01/26 05:19:16;;;;;;;4.03;1.50;;;;;;;5.62;100.00;101885.16;5099595;28;20138;-89
2022/01/26 05:21:43;;;;;;;6.25;2.40;;;;;;;5.28;100.00;101846.16;5110969;27;20050;-89
2022/01/26 05:24:10;;;;;;;4.68;1.88;;;;;;;5.70;100.00;101888.66;5116661;27;20133;-89
2022/01/26 05:26:38;;;;;;;4.78;1.40;;;;;;;5.87;100.00;101900.78;5116915;27;20055;-89
2022/01/26 05:29:11;;;;;;;4.72;1.70;;;;;;;5.69;100.00;101889.50;5117151;27;20492;-89
2022/01/26 05:31:37;;;;;;;6.45;2.13;;;;;;;5.38;100.00;101892.91;5119746;27;20050;-89
2022/01/26 05:34:04;;;;;;;5.95;1.88;;;;;;;5.81;100.00;101901.66;5113973;28;20048;-89
2022/01/26 05:36:31;;;;;;;6.13;1.70;;;;;;;5.77;100.00;101886.03;5121536;27;20043;-89
2022/01/26 05:38:58;;;;;;;4.78;1.40;;;;;;;5.85;100.00;101899.91;5134885;27;20069;-89
2022/01/26 05:41:24;;;;;;;4.10;1.55;;;;;;;5.96;100.00;101897.34;5109983;28;20058;-89
2022/01/26 05:43:51;;;;;;;7.22;1.73;;;;;;;5.42;100.00;101838.38;5112652;28;20051;-89
2022/01/26 05:46:32;;;;;;;5.45;1.63;;;;;;;5.99;100.00;101910.38;5113854;28;20139;-88
2022/01/26 05:48:59;;;;;;;4.65;1.52;;;;;;;5.40;100.00;101845.31;5112161;28;20097;-88
2022/01/26 05:51:27;;;;;;;3.97;1.25;;;;;;;5.76;100.00;101869.59;5114249;27;20047;-88
2022/01/26 05:53:53;;;;;;;6.18;1.50;;;;;;;6.10;100.00;101898.22;5113687;28;20070;-89
2022/01/26 05:56:20;;;;;;;5.30;1.50;;;;;;;5.77;100.00;101866.13;5113213;28;20058;-88
2022/01/26 05:58:47;;;;;;;3.47;1.50;;;;;;;5.59;100.00;101845.31;5095013;28;20115;-88
2022/01/26 06:01:14;;;;;;;5.50;2.25;;;;;;;5.91;100.00;101886.91;5125683;27;20078;-89
2022/01/26 06:03:41;;;;;;;9.75;1.80;;;;;;;5.47;100.00;101839.25;5116012;27;20047;-88
2022/01/26 06:06:08;;;;;;;5.63;1.50;;;;;;;5.59;100.00;101851.38;5115896;27;20053;-88
2022/01/26 06:08:35;;;;;;;6.03;1.67;;;;;;;5.69;100.00;101875.66;5133977;27;20498;-88
2022/01/26 06:11:04;;;;;;;4.00;1.30;;;;;;;5.82;100.00;101913.75;5113966;27;20047;-86
2022/01/26 06:13:30;;;;;;;4.40;1.40;;;;;;;5.74;100.00;101891.22;5115021;28;20047;-89
2022/01/26 06:15:57;;;;;;;5.28;1.55;;;;;;;5.76;100.00;101900.78;5107127;28;20051;-89
2022/01/26 06:18:24;;;;;;;6.03;1.70;;;;;;;5.78;100.00;101899.03;5104718;28;20713;-90
2022/01/26 06:20:51;;;;;;;4.78;1.83;;;;;;;5.55;100.00;101879.97;5107496;28;20040;-88
2022/01/26 06:23:24;;;;;;;5.88;1.70;;;;;;;5.48;100.00;101873.88;5131662;28;20065;-89
2022/01/26 06:25:54;;;;;;;6.55;1.92;;;;;;;5.39;100.00;101887.72;5105269;28;20050;-88
2022/01/26 06:28:23;;;;;;;6.93;2.95;;;;;;;5.33;100.00;101875.59;5099018;28;20130;-89
2022/01/26 06:30:56;;;;;;;5.82;2.00;;;;;;;5.11;100.00;101821.88;5107553;28;20058;-87
2022/01/26 06:33:23;;;;;;;6.05;2.17;;;;;;;5.57;100.00;101891.22;5128619;27;20092;-89
2022/01/26 06:35:50;;;;;;;3.45;1.50;;;;;;;5.71;100.00;101897.31;5112917;28;20062;-89
2022/01/26 06:38:17;;;;;;;4.70;1.60;;;;;;;5.11;100.00;101835.72;5107088;28;20053;-89
2022/01/26 06:40:43;;;;;;;6.65;2.10;;;;;;;4.92;100.00;101816.63;5123450;27;20058;-87
2022/01/26 06:43:14;;;;;;;6.72;1.70;;;;;;;5.16;100.00;101840.06;5107604;27;20054;-89
2022/01/26 06:45:49;;;;;;;9.48;2.17;;;;;;;5.33;100.00;101882.53;5128338;27;20056;-89
2022/01/26 06:50:52;;;;;;;4.25;1.60;;;;;;;5.47;100.00;101870.44;5132088;27;20058;-89
2022/01/26 06:53:19;;;;;;;5.22;1.60;;;;;;;5.33;100.00;101831.44;5126137;27;20562;-88
2022/01/26 06:55:46;;;;;;;8.23;1.90;;;;;;;5.14;100.00;101829.69;5131572;27;20140;-86
2022/01/26 06:58:13;;;;;;;11.48;2.00;;;;;;;5.43;100.00;101865.22;5114874;27;20046;-85
2022/01/26 07:00:40;;;;;;;6.32;1.98;;;;;;;5.25;100.00;101850.47;5126927;27;20046;-92
2022/01/26 07:03:07;;;;;;;7.07;1.77;;;;;;;5.39;100.00;101858.28;5131427;27;20043;-92
2022/01/26 07:05:34;;;;;;;9.05;1.83;;;;;;;5.43;100.00;101875.59;5133225;27;20069;-91
2022/01/26 07:08:04;;;;;;;7.93;1.90;;;;;;;5.48;100.00;101877.34;5112356;27;20044;-91
2022/01/26 07:10:51;;;;;;;5.18;1.73;;;;;;;5.35;100.00;101844.44;5109689;28;20473;-91
2022/01/26 07:13:26;;;;;;;7.70;2.00;;;;;;;4.95;100.00;101819.22;5100292;27;20047;-87
2022/01/26 07:21:28;;;;;;;7.68;2.42;;;;;;;5.01;100.00;101865.13;5131477;27;20524;-91
2022/01/26 07:23:56;;;;;;;9.30;2.30;;;;;;;4.89;100.00;101836.53;5118986;27;20133;-91
2022/01/26 07:26:29;;;;;;;6.80;2.10;;;;;;;4.90;100.00;101840.84;5119817;27;20055;-91
2022/01/26 07:28:57;;;;;;;7.30;2.17;;;;;;;5.29;100.00;101883.38;5120382;27;20066;-91
2022/01/26 07:31:28;;;;;;;7.32;2.15;;;;;;;4.97;100.00;101823.56;5120313;27;20131;-92
2022/01/26 07:33:57;;;;;;;11.30;2.35;;;;;;;5.22;100.00;101848.72;5105056;28;20075;-91
2022/01/26 07:36:33;;;;;;;8.13;2.55;;;;;;;5.41;100.00;101865.22;5106589;27;20043;-90
2022/01/26 07:39:07;;;;;;;6.68;2.10;;;;;;;5.31;100.00;101842.69;5103007;27;20054;-91
2022/01/26 07:41:36;;;;;;;9.27;2.03;;;;;;;4.99;100.00;101808.84;5120400;27;20055;-90
2022/01/26 07:44:03;;;;;;;9.32;1.92;;;;;;;5.47;100.00;101875.63;5138940;27;20051;-91
2022/01/26 07:46:31;;;;;;;8.20;2.00;;;;;;;5.22;100.00;101834.88;5120176;27;20043;-91
2022/01/26 07:48:58;;;;;;;10.80;2.40;;;;;;;5.14;100.00;101834.88;5137895;27;20533;-92
2022/01/26 07:51:25;;;;;;;11.40;2.42;;;;;;;5.17;100.00;101853.06;5119239;27;20058;-94
2022/01/26 07:53:57;;;;;;;8.15;1.95;;;;;;;5.19;100.00;101845.25;5121567;27;20085;-93
2022/01/26 07:56:24;;;;;;;8.80;2.00;;;;;;;5.06;100.00;101850.41;5121251;27;20051;-93
2022/01/26 07:59:00;;;;;;;11.73;2.70;;;;;;;5.00;100.00;101841.75;5121585;27;20047;-92
2022/01/26 08:01:30;;;;;;;14.15;2.33;;;;;;;5.12;100.00;101847.84;5116715;27;20046;-92
2022/01/26 08:03:57;;;;;;;6.88;1.83;;;;;;;4.97;100.00;101816.63;5117681;27;20445;-89
2022/01/26 08:06:24;;;;;;;10.65;2.53;;;;;;;5.03;100.00;101814.06;5141243;27;20536;-90
2022/01/26 08:08:51;;;;;;;6.50;2.00;;;;;;;4.98;100.00;101809.75;5157099;27;20057;-90
2022/01/26 08:11:18;;;;;;;8.68;2.53;;;;;;;5.17;100.00;101821.91;5126158;27;20057;-91
2022/01/26 08:13:45;;;;;;;10.68;2.33;;;;;;;4.88;100.00;101847.75;5136417;27;20049;-90
2022/01/26 08:16:11;;;;;;;9.70;2.42;;;;;;;4.92;100.00;101859.88;5117684;27;20049;-90
2022/01/26 08:18:38;;;;;;;9.38;2.30;;;;;;;4.42;100.00;101791.34;5136575;27;20047;-91
2022/01/26 08:21:05;;;;;;;9.63;2.40;;;;;;;4.93;100.00;101851.25;5117389;27;20047;-90
2022/01/26 08:23:35;;;;;;;10.43;2.80;;;;;;;4.92;100.00;101829.63;5135707;27;20131;-90
2022/01/26 08:26:03;;;;;;;5.53;1.80;;;;;;;4.91;100.00;101821.81;5118274;27;20047;-91
2022/01/26 08:28:39;;;;;;;12.88;2.72;;;;;;;4.69;100.00;101846.81;5136134;27;20047;-90
2022/01/26 08:31:07;;;;;;;10.05;2.55;;;;;;;4.19;100.00;101786.91;5117250;27;20050;-91
2022/01/26 08:33:34;;;;;;;7.32;2.70;;;;;;;4.45;100.00;101821.63;5117850;27;20058;-90
2022/01/26 08:36:01;;;;;;;8.45;2.50;;;;;;;4.52;100.00;101810.44;5107424;28;20075;-90
2022/01/26 08:38:31;;;;;;;11.57;2.58;;;;;;;4.67;100.00;101831.22;5097209;28;20057;-90
2022/01/26 08:40:58;;;;;;;14.48;2.47;;;;;;;4.82;100.00;101801.03;5121043;28;20100;-91
2022/01/26 08:43:24;;;;;;;11.05;3.30;;;;;;;4.82;100.00;101791.50;5097589;28;20070;-89
2022/01/26 08:45:51;;;;;;;10.38;2.30;;;;;;;5.01;100.00;101796.75;5101854;27;20050;-91
2022/01/26 08:48:18;;;;;;;12.07;2.50;;;;;;;4.90;100.00;101796.72;5118189;27;20046;-92
2022/01/26 08:50:45;;;;;;;7.60;2.20;;;;;;;4.84;100.00;101779.41;5129979;27;20065;-93
2022/01/26 08:53:12;;;;;;;12.95;2.72;;;;;;;4.67;100.00;101792.31;5098766;27;20057;-93
2022/01/26 08:55:39;;;;;;;6.93;2.42;;;;;;;5.01;100.00;101808.00;5105574;27;20043;-92
2022/01/26 08:58:06;;;;;;;10.35;2.85;;;;;;;4.85;100.00;101764.69;5128398;27;20039;-93
2022/01/26 09:00:35;;;;;;;7.88;2.50;;;;;;;4.75;100.00;101767.28;5115658;27;20495;-93
2022/01/26 09:03:13;;;;;;;7.97;2.65;;;;;;;4.70;100.00;101766.38;5115788;28;20083;-92
2022/01/26 09:05:40;;;;;;;8.35;3.00;;;;;;;4.87;100.00;101761.25;5125636;27;20054;-93
2022/01/26 09:08:07;;;;;;;7.90;2.60;;;;;;;4.88;100.00;101764.72;5128819;27;20048;-93
2022/01/26 09:10:34;;;;;;;11.57;2.60;;;;;;;4.80;100.00;101802.72;5112745;28;20043;-93
2022/01/26 09:13:02;;;;;;;8.18;2.55;;;;;;;4.47;100.00;101766.31;5127992;27;20047;-91
2022/01/26 09:15:30;;;;;;;7.93;2.30;;;;;;;5.13;100.00;101771.69;5119635;27;20122;-93
2022/01/26 09:18:00;;;;;;;10.55;3.10;;;;;;;5.29;100.00;101777.78;5090591;27;20059;-92
2022/01/26 09:20:28;;;;;;;14.68;3.15;;;;;;;5.19;100.00;101789.00;5104293;27;20054;-92
2022/01/26 09:22:55;;;;;;;9.98;2.40;;;;;;;5.22;100.00;101789.00;5109712;27;20489;-92
2022/01/26 09:25:22;;;;;;;9.43;2.90;;;;;;;5.22;100.00;101769.97;5108719;28;20062;-89
2022/01/26 09:27:50;;;;;;;7.95;2.33;;;;;;;5.37;100.00;101759.59;5105816;27;20073;-91
2022/01/26 09:30:17;;;;;;;6.95;2.50;;;;;;;5.51;100.00;101754.41;5128360;27;20043;-90
2022/01/26 09:32:45;;;;;;;11.82;2.42;;;;;;;5.31;100.00;101708.53;5131381;27;20571;-92
2022/01/26 09:35:13;;;;;;;7.28;1.83;;;;;;;5.93;100.00;101760.41;5125715;27;20049;-91
2022/01/26 09:37:41;;;;;;;7.32;2.17;;;;;;;6.03;100.00;101719.69;5102441;28;20048;-91
2022/01/26 09:40:08;;;;;;;8.32;2.20;;;;;;;6.41;100.00;101760.28;5110052;28;20400;-92
2022/01/26 09:42:36;;;;;;;10.25;2.25;;;;;;;6.37;100.00;101745.56;5107088;27;20062;-90
2022/01/26 09:45:05;;;;;;;9.52;2.30;;;;;;;6.50;100.00;101742.06;5115416;27;20047;-91
2022/01/26 09:47:32;;;;;;;10.75;2.33;;;;;;;6.46;100.00;101730.81;5114401;27;20050;-91
2022/01/26 09:50:19;;;;;;;10.40;2.10;;;;;;;6.47;100.00;101753.31;5098496;27;20412;-91
2022/01/26 09:52:48;;;;;;;8.55;2.10;;;;;;;6.44;100.00;101744.69;5094976;27;20039;-91
2022/01/26 09:55:16;;;;;;;12.48;2.55;;;;;;;6.46;100.00;101720.41;5103487;28;20050;-91
2022/01/26 09:57:44;;;;;;;8.48;2.20;;;;;;;6.24;100.00;101727.41;5123610;27;20158;-91
2022/01/26 10:00:12;;;;;;;10.88;2.20;;;;;;;6.18;100.00;101698.84;5118537;27;20082;-91
2022/01/26 10:02:41;;;;;;;12.38;2.20;;;;;;;6.26;100.00;101709.22;5123603;27;20127;-91
2022/01/26 10:05:11;;;;;;;7.75;2.08;;;;;;;6.37;100.00;101711.75;5107171;27;20849;-91
2022/01/26 10:08:12;;;;;;;18.95;2.38;;;;;;;6.54;100.00;101735.97;5098493;27;20062;-91
2022/01/26 10:16:24;;;;;;;6.78;2.28;;;;;;;6.57;100.00;101677.81;5120520;27;21343;-92
2022/01/26 10:18:56;;;;;;;11.35;3.63;;;;;;;6.40;100.00;101701.34;5105856;28;20043;-88
2022/01/26 10:21:24;;;;;;;15.63;3.38;;;;;;;6.57;100.00;101724.66;5125283;27;20061;-87
2022/01/26 10:23:57;;;;;;;9.68;2.80;;;;;;;6.40;100.00;101683.13;5124751;27;20552;-90
2022/01/26 10:26:24;;;;;;;10.32;3.17;;;;;;;6.59;100.00;101696.91;5124332;28;20059;-93
2022/01/26 10:28:59;;;;;;;191.15;20.50;;;;;;;6.71;100.00;101680.34;5118662;28;20070;-90
2022/01/26 10:31:35;;;;;;;31.63;7.20;;;;;;;6.71;100.00;101699.44;5105824;28;20049;-92
2022/01/26 10:34:13;;;;;;;34.63;5.97;;;;;;;6.88;100.00;101660.28;5111280;28;20044;-93
2022/01/26 10:36:57;;;;;;;15.82;4.43;;;;;;;7.12;100.00;101687.88;5103631;28;20052;-92
2022/01/26 10:39:29;;;;;;;14.43;4.93;;;;;;;7.04;100.00;101698.31;5112695;28;20130;-92
2022/01/26 10:42:03;;;;;;;18.42;4.80;;;;;;;6.88;100.00;101673.28;5114743;28;20133;-91
2022/01/26 10:44:33;;;;;;;17.00;5.60;;;;;;;6.77;100.00;101664.72;5125908;28;20047;-90
2022/01/26 10:47:03;;;;;;;17.20;5.10;;;;;;;6.57;100.00;101626.66;5096323;28;20044;-92
2022/01/26 10:52:22;;;;;;;16.83;4.20;;;;;;;6.86;100.00;101641.19;5124282;28;20105;-91
2022/01/26 10:54:50;;;;;;;13.48;4.13;;;;;;;6.93;100.00;101636.81;5101498;28;20058;-91
2022/01/26 10:57:18;;;;;;;14.30;4.60;;;;;;;7.04;100.00;101630.63;5122303;27;20059;-91
2022/01/26 10:59:47;;;;;;;13.75;4.28;;;;;;;6.78;100.00;101557.97;5108477;28;20043;-90
2022/01/26 11:02:21;;;;;;;15.05;3.83;;;;;;;7.26;100.00;101621.75;5097478;28;20098;-91
2022/01/26 11:04:48;;;;;;;12.85;3.05;;;;;;;7.13;100.00;101577.59;5133855;28;20477;-91
2022/01/26 11:07:16;;;;;;;12.43;3.42;;;;;;;7.62;100.00;101624.88;5111951;28;20039;-92
2022/01/26 11:09:46;;;;;;;10.40;3.75;;;;;;;7.17;100.00;101553.25;5114016;28;20043;-92
2022/01/26 11:12:15;;;;;;;11.75;4.07;;;;;;;7.37;100.00;101586.91;5115326;28;20043;-91
2022/01/26 11:14:51;;;;;;;10.85;2.88;;;;;;;7.74;100.00;101598.66;5132782;28;20104;-91
2022/01/26 11:17:27;;;;;;;10.82;2.97;;;;;;;7.83;100.00;101584.66;5122570;28;20587;-91
2022/01/26 11:19:57;;;;;;;11.27;3.63;;;;;;;7.95;100.00;101598.41;5133171;28;20047;-91
2022/01/26 11:22:31;;;;;;;16.55;3.65;;;;;;;7.84;100.00;101576.78;5105683;28;20051;-92
2022/01/26 11:25:09;;;;;;;32.97;5.60;;;;;;;8.11;100.00;101557.31;5109712;28;20739;-91
2022/01/26 11:27:38;;;;;;;72.57;9.85;;;;;;;8.24;100.00;101568.44;5111652;27;20049;-92
2022/01/26 11:30:21;;;;;;;10.98;3.00;;;;;;;8.42;100.00;101548.19;5135605;27;20051;-91
2022/01/26 11:33:03;;;;;;;13.20;3.10;;;;;;;8.71;100.00;101556.44;5126527;27;20054;-92
2022/01/26 11:35:35;;;;;;;9.73;2.38;;;;;;;8.68;100.00;101553.00;5108421;28;20282;-92
2022/01/26 11:39:04;;;;;;;13.83;3.43;;;;;;;8.45;100.00;101517.69;5099139;28;20051;-91
2022/01/26 11:47:00;;;;;;;21.08;7.75;;;;;;;8.60;100.00;101489.63;5116807;27;20054;-91
2022/01/26 11:49:33;;;;;;;13.15;3.22;;;;;;;8.79;100.00;101508.44;5133360;27;20051;-91
2022/01/26 11:52:01;;;;;;;10.40;3.00;;;;;;;8.54;100.00;101477.53;5112110;28;20057;-92
2022/01/26 11:54:41;;;;;;;9.93;2.58;;;;;;;8.76;100.00;101480.63;5136040;27;20051;-92
2022/01/26 11:57:14;;;;;;;8.57;2.45;;;;;;;8.90;100.00;101493.44;5118959;27;20108;-92
2022/01/26 11:59:51;;;;;;;17.27;7.07;;;;;;;8.55;100.00;101434.88;5115588;27;20031;-93
2022/01/26 12:05:17;;;;;;;47.65;20.48;;;;;;;8.74;100.00;101462.38;5130772;27;20122;-91
2022/01/26 12:07:50;;;;;;;15.70;5.63;;;;;;;8.98;100.00;101464.53;5107359;27;20396;-91
2022/01/26 12:10:36;;;;;;;15.07;5.70;;;;;;;9.03;100.00;101429.63;5123779;27;20377;-92
2022/01/26 12:13:03;;;;;;;11.43;3.78;;;;;;;9.17;100.00;101445.03;5108127;27;20050;-92
2022/01/26 12:15:39;;;;;;;9.68;3.20;;;;;;;9.23;100.00;101439.66;5132177;27;20048;-91
2022/01/26 12:35:07;;;;;;;5.68;2.13;;;;;;;9.47;100.00;101332.84;5136055;27;20061;-91
2022/01/26 12:38:07;;;;;;;11.23;3.10;;;;;;;9.26;100.00;101321.13;5098131;28;20477;-91
2022/01/26 12:43:34;;;;;;;8.63;3.95;;;;;;;9.24;100.00;101278.50;5135983;27;20057;-92
2022/01/26 12:46:03;;;;;;;11.95;4.57;;;;;;;9.30;100.00;101294.91;5112651;27;20374;-92
2022/01/26 12:48:34;;;;;;;8.55;3.83;;;;;;;9.26;100.00;101277.59;5119976;27;20047;-93
2022/01/26 12:51:06;;;;;;;8.85;4.22;;;;;;;9.14;100.00;101259.59;5129879;27;20496;-92
2022/01/26 12:53:35;;;;;;;9.60;4.75;;;;;;;9.31;100.00;101249.59;5098347;28;20047;-92
2022/01/26 12:56:05;;;;;;;9.80;4.70;;;;;;;9.26;100.00;101266.25;5110964;27;20053;-92
2022/01/26 12:58:35;;;;;;;12.95;5.78;;;;;;;8.87;100.00;101201.88;5109722;28;20063;-92
2022/01/26 13:01:08;;;;;;;10.70;4.15;;;;;;;8.82;100.00;101211.56;5127489;27;20047;-93
2022/01/26 13:03:38;;;;;;;9.48;3.42;;;;;;;9.05;100.00;101226.69;5111868;28;20047;-93
2022/01/26 13:06:18;;;;;;;8.38;3.22;;;;;;;9.09;100.00;101244.00;5099013;28;20075;-92
2022/01/26 13:08:52;;;;;;;7.80;2.92;;;;;;;8.92;100.00;101191.31;5103779;28;20043;-92
2022/01/26 13:11:38;;;;;;;5.32;2.03;;;;;;;8.99;100.00;101239.88;5117089;27;20053;-93
2022/01/26 13:14:12;;;;;;;4.47;1.85;;;;;;;9.10;100.00;101229.19;5108976;27;20046;-92
2022/01/26 13:16:54;;;;;;;4.45;1.70;;;;;;;9.34;100.00;101211.22;5109865;27;20051;-92
2022/01/26 13:22:28;;;;;;;4.70;1.88;;;;;;;8.94;100.00;101124.22;5129729;27;20131;-93
2022/01/26 13:25:56;;;;;;;5.47;2.10;;;;;;;8.76;100.00;101142.94;5123836;27;20057;-93
2022/01/26 13:36:15;;;;;;;5.82;2.17;;;;;;;9.07;100.00;101101.28;5130093;27;20049;-93
2022/01/26 13:42:13;;;;;;;6.82;2.78;;;;;;;8.60;100.00;101061.53;5083864;28;20062;-93
2022/01/26 13:44:53;;;;;;;5.03;2.20;;;;;;;8.48;100.00;101029.63;5135546;27;20039;-93
2022/01/26 14:00:19;;;;;;;3.67;1.50;;;;;;;8.92;100.00;101011.09;5135553;27;20081;-93
2022/01/26 14:02:51;;;;;;;5.20;1.67;;;;;;;9.15;100.00;101039.22;5109656;27;20392;-93
2022/01/26 14:05:19;;;;;;;4.15;1.67;;;;;;;8.89;100.00;100993.78;5133493;27;20047;-93
2022/01/26 14:07:46;;;;;;;4.55;1.50;;;;;;;8.81;100.00;100959.19;5097915;28;20561;-92
2022/01/26 14:10:13;;;;;;;5.78;1.88;;;;;;;8.85;100.00;100992.16;5121426;27;20679;-92
2022/01/26 14:12:45;;;;;;;4.63;1.60;;;;;;;8.72;100.00;100969.88;5113918;27;20131;-86
2022/01/26 14:15:12;;;;;;;3.97;1.58;;;;;;;9.13;100.00;100986.16;5106591;27;20043;-91
2022/01/26 14:20:42;;;;;;;5.55;1.50;;;;;;;9.39;100.00;100981.97;5115761;27;20053;-90
2022/01/26 14:25:45;;;;;;;4.20;1.50;;;;;;;9.75;100.00;100974.78;5133657;27;20053;-91
2022/01/26 14:28:21;;;;;;;3.75;1.30;;;;;;;9.60;100.00;100934.28;5108287;28;20385;-91